sensor_id;sensor_type;location;lat;lon;timestamp;temperature;humidity
28835;DHT22;15969;51.536;11.884;2023-06-05T00:01:56;8.40;99.90
28835;DHT22;15969;51.536;11.884;2023-06-05T00:04:22;8.40;99.90
28835;DHT22;15969;51.536;11.884;2023-06-05T00:06:49;8.30;99.90
28835;DHT22;15969;51.536;11.884;2023-06-05T00:09:16;8.30;99.90
28835;DHT22;15969;51.536;11.884;2023-06-05T00:11:42;8.30;99.90
28835;DHT22;15969;51.536;11.884;2023-06-05T00:14:07;8.30;99.90
28835;DHT22;15969;51.536;11.884;2023-06-05T00:16:34;8.30;99.90
28835;DHT22;15969;51.536;11.884;2023-06-05T00:19:00;8.30;99.90
28835;DHT22;15969;51.536;11.884;2023-06-05T00:21:26;8.30;99.90
28835;DHT22;15969;51.536;11.884;2023-06-05T00:23:52;8.30;99.90
28835;DHT22;15969;51.536;11.884;2023-06-05T00:26:18;8.30;99.90
28835;DHT22;15969;51.536;11.884;2023-06-05T00:28:43;8.30;99.90
28835;DHT22;15969;51.536;11.884;2023-06-05T00:31:09;8.30;99.90
28835;DHT22;15969;51.536;11.884;2023-06-05T00:33:35;8.20;99.90
28835;DHT22;15969;51.536;11.884;2023-06-05T00:36:00;8.10;99.90
28835;DHT22;15969;51.536;11.884;2023-06-05T00:38:26;8.10;99.90
28835;DHT22;15969;51.536;11.884;2023-06-05T00:40:52;8.10;99.90
28835;DHT22;15969;51.536;11.884;2023-06-05T00:43:18;8.00;99.90
28835;DHT22;15969;51.536;11.884;2023-06-05T00:45:43;8.00;99.90
28835;DHT22;15969;51.536;11.884;2023-06-05T00:48:09;7.90;99.90
28835;DHT22;15969;51.536;11.884;2023-06-05T00:50:36;7.90;99.90
28835;DHT22;15969;51.536;11.884;2023-06-05T00:53:03;7.90;99.90
28835;DHT22;15969;51.536;11.884;2023-06-05T00:55:32;7.90;99.90
28835;DHT22;15969;51.536;11.884;2023-06-05T00:58:00;7.90;99.90
28835;DHT22;15969;51.536;11.884;2023-06-05T01:00:27;7.80;99.90
28835;DHT22;15969;51.536;11.884;2023-06-05T01:02:52;7.80;99.90
28835;DHT22;15969;51.536;11.884;2023-06-05T01:05:19;7.70;99.90
28835;DHT22;15969;51.536;11.884;2023-06-05T01:07:45;7.70;99.90
28835;DHT22;15969;51.536;11.884;2023-06-05T01:10:13;7.60;99.90
28835;DHT22;15969;51.536;11.884;2023-06-05T01:12:49;7.60;99.90
28835;DHT22;15969;51.536;11.884;2023-06-05T01:15:19;7.60;99.90
28835;DHT22;15969;51.536;11.884;2023-06-05T01:17:54;7.60;99.90
28835;DHT22;15969;51.536;11.884;2023-06-05T01:20:21;7.60;99.90
28835;DHT22;15969;51.536;11.884;2023-06-05T01:22:50;7.50;99.90
28835;DHT22;15969;51.536;11.884;2023-06-05T01:25:17;7.50;99.90
28835;DHT22;15969;51.536;11.884;2023-06-05T01:27:55;7.50;99.90
28835;DHT22;15969;51.536;11.884;2023-06-05T01:30:36;7.50;99.90
28835;DHT22;15969;51.536;11.884;2023-06-05T01:33:29;7.50;99.90
28835;DHT22;15969;51.536;11.884;2023-06-05T01:35:56;7.50;99.90
28835;DHT22;15969;51.536;11.884;2023-06-05T01:38:32;7.50;99.90
28835;DHT22;15969;51.536;11.884;2023-06-05T01:40:58;7.50;99.90
28835;DHT22;15969;51.536;11.884;2023-06-05T01:43:25;7.70;99.90
28835;DHT22;15969;51.536;11.884;2023-06-05T01:45:51;7.50;99.90
28835;DHT22;15969;51.536;11.884;2023-06-05T01:48:17;7.50;99.90
28835;DHT22;15969;51.536;11.884;2023-06-05T01:50:43;7.40;99.90
28835;DHT22;15969;51.536;11.884;2023-06-05T01:53:09;7.40;99.90
28835;DHT22;15969;51.536;11.884;2023-06-05T01:55:36;7.40;99.90
28835;DHT22;15969;51.536;11.884;2023-06-05T01:58:04;7.40;99.90
28835;DHT22;15969;51.536;11.884;2023-06-05T02:00:30;7.30;99.90
28835;DHT22;15969;51.536;11.884;2023-06-05T02:02:56;7.30;99.90
28835;DHT22;15969;51.536;11.884;2023-06-05T02:05:22;7.30;99.90
28835;DHT22;15969;51.536;11.884;2023-06-05T02:07:49;7.20;99.90
28835;DHT22;15969;51.536;11.884;2023-06-05T02:10:19;7.20;99.90
28835;DHT22;15969;51.536;11.884;2023-06-05T02:12:45;7.10;99.90
28835;DHT22;15969;51.536;11.884;2023-06-05T02:15:11;7.10;99.90
28835;DHT22;15969;51.536;11.884;2023-06-05T02:17:42;7.00;99.90
28835;DHT22;15969;51.536;11.884;2023-06-05T02:20:11;7.00;99.90
28835;DHT22;15969;51.536;11.884;2023-06-05T02:22:38;7.00;99.90
28835;DHT22;15969;51.536;11.884;2023-06-05T02:25:05;6.90;99.90
28835;DHT22;15969;51.536;11.884;2023-06-05T02:27:31;6.80;99.90
28835;DHT22;15969;51.536;11.884;2023-06-05T02:29:57;6.90;99.90
28835;DHT22;15969;51.536;11.884;2023-06-05T02:32:22;6.80;99.90
28835;DHT22;15969;51.536;11.884;2023-06-05T02:34:52;6.80;99.90
28835;DHT22;15969;51.536;11.884;2023-06-05T02:37:18;6.80;99.90
28835;DHT22;15969;51.536;11.884;2023-06-05T02:39:44;6.70;99.90
28835;DHT22;15969;51.536;11.884;2023-06-05T02:42:10;6.70;99.90
28835;DHT22;15969;51.536;11.884;2023-06-05T02:44:37;6.70;99.90
28835;DHT22;15969;51.536;11.884;2023-06-05T02:47:03;6.70;99.90
28835;DHT22;15969;51.536;11.884;2023-06-05T02:49:29;6.70;99.90
28835;DHT22;15969;51.536;11.884;2023-06-05T02:51:55;6.80;99.90
28835;DHT22;15969;51.536;11.884;2023-06-05T02:54:21;6.70;99.90
28835;DHT22;15969;51.536;11.884;2023-06-05T02:56:47;6.70;99.90
28835;DHT22;15969;51.536;11.884;2023-06-05T02:59:12;6.70;99.90
28835;DHT22;15969;51.536;11.884;2023-06-05T03:01:39;6.70;99.90
28835;DHT22;15969;51.536;11.884;2023-06-05T03:04:08;6.70;99.90
28835;DHT22;15969;51.536;11.884;2023-06-05T03:06:34;6.70;99.90
28835;DHT22;15969;51.536;11.884;2023-06-05T03:09:00;6.70;99.90
28835;DHT22;15969;51.536;11.884;2023-06-05T03:11:26;6.70;99.90
28835;DHT22;15969;51.536;11.884;2023-06-05T03:13:52;6.70;99.90
28835;DHT22;15969;51.536;11.884;2023-06-05T03:16:18;6.70;99.90
28835;DHT22;15969;51.536;11.884;2023-06-05T03:18:44;6.80;99.90
28835;DHT22;15969;51.536;11.884;2023-06-05T03:21:11;6.80;99.90
28835;DHT22;15969;51.536;11.884;2023-06-05T03:23:37;6.80;99.90
28835;DHT22;15969;51.536;11.884;2023-06-05T03:26:03;6.80;99.90
28835;DHT22;15969;51.536;11.884;2023-06-05T03:28:29;6.70;99.90
28835;DHT22;15969;51.536;11.884;2023-06-05T03:30:58;6.60;99.90
28835;DHT22;15969;51.536;11.884;2023-06-05T03:33:25;6.40;99.90
28835;DHT22;15969;51.536;11.884;2023-06-05T03:35:50;6.40;99.90
28835;DHT22;15969;51.536;11.884;2023-06-05T03:38:18;6.50;99.90
28835;DHT22;15969;51.536;11.884;2023-06-05T03:40:43;6.60;99.90
28835;DHT22;15969;51.536;11.884;2023-06-05T03:43:09;6.60;99.90
28835;DHT22;15969;51.536;11.884;2023-06-05T03:45:37;6.70;99.90
28835;DHT22;15969;51.536;11.884;2023-06-05T03:48:06;6.80;99.90
28835;DHT22;15969;51.536;11.884;2023-06-05T03:50:32;6.80;99.90
28835;DHT22;15969;51.536;11.884;2023-06-05T03:53:02;6.90;99.90
28835;DHT22;15969;51.536;11.884;2023-06-05T03:55:32;7.00;99.90
28835;DHT22;15969;51.536;11.884;2023-06-05T03:58:16;7.00;99.90
28835;DHT22;15969;51.536;11.884;2023-06-05T04:00:43;7.00;99.90
28835;DHT22;15969;51.536;11.884;2023-06-05T04:03:10;7.00;99.90
28835;DHT22;15969;51.536;11.884;2023-06-05T04:05:38;7.10;99.90
28835;DHT22;15969;51.536;11.884;2023-06-05T04:08:05;7.30;99.90
28835;DHT22;15969;51.536;11.884;2023-06-05T04:10:32;7.30;99.90
28835;DHT22;15969;51.536;11.884;2023-06-05T04:12:57;7.40;99.90
28835;DHT22;15969;51.536;11.884;2023-06-05T04:15:23;7.50;99.90
28835;DHT22;15969;51.536;11.884;2023-06-05T04:17:49;7.60;99.90
28835;DHT22;15969;51.536;11.884;2023-06-05T04:20:15;7.60;99.90
28835;DHT22;15969;51.536;11.884;2023-06-05T04:22:42;7.80;99.90
28835;DHT22;15969;51.536;11.884;2023-06-05T04:25:09;7.90;99.90
28835;DHT22;15969;51.536;11.884;2023-06-05T04:27:38;8.00;99.90
28835;DHT22;15969;51.536;11.884;2023-06-05T04:30:10;8.10;99.90
28835;DHT22;15969;51.536;11.884;2023-06-05T04:32:38;8.20;99.90
28835;DHT22;15969;51.536;11.884;2023-06-05T04:35:05;8.30;99.90
28835;DHT22;15969;51.536;11.884;2023-06-05T04:37:32;8.40;99.90
28835;DHT22;15969;51.536;11.884;2023-06-05T04:39:58;8.60;99.90
28835;DHT22;15969;51.536;11.884;2023-06-05T04:42:25;8.70;99.90
28835;DHT22;15969;51.536;11.884;2023-06-05T04:44:56;8.80;99.90
28835;DHT22;15969;51.536;11.884;2023-06-05T04:47:23;9.00;99.90
28835;DHT22;15969;51.536;11.884;2023-06-05T04:49:48;9.20;99.90
28835;DHT22;15969;51.536;11.884;2023-06-05T04:52:17;9.30;99.90
28835;DHT22;15969;51.536;11.884;2023-06-05T04:54:43;9.50;99.90
28835;DHT22;15969;51.536;11.884;2023-06-05T04:57:09;9.70;99.90
28835;DHT22;15969;51.536;11.884;2023-06-05T04:59:36;9.80;99.90
28835;DHT22;15969;51.536;11.884;2023-06-05T05:02:03;9.90;99.90
28835;DHT22;15969;51.536;11.884;2023-06-05T05:04:29;10.00;99.90
28835;DHT22;15969;51.536;11.884;2023-06-05T05:06:55;10.10;99.90
28835;DHT22;15969;51.536;11.884;2023-06-05T05:09:27;10.20;99.90
28835;DHT22;15969;51.536;11.884;2023-06-05T05:11:53;10.40;99.90
28835;DHT22;15969;51.536;11.884;2023-06-05T05:14:19;10.50;99.90
28835;DHT22;15969;51.536;11.884;2023-06-05T05:16:45;10.60;99.90
28835;DHT22;15969;51.536;11.884;2023-06-05T05:19:10;10.80;99.90
28835;DHT22;15969;51.536;11.884;2023-06-05T05:21:36;10.90;99.90
28835;DHT22;15969;51.536;11.884;2023-06-05T05:24:03;11.00;99.90
28835;DHT22;15969;51.536;11.884;2023-06-05T05:26:29;11.10;99.90
28835;DHT22;15969;51.536;11.884;2023-06-05T05:28:55;11.20;99.90
28835;DHT22;15969;51.536;11.884;2023-06-05T05:31:21;11.30;99.90
28835;DHT22;15969;51.536;11.884;2023-06-05T05:33:46;11.50;99.90
28835;DHT22;15969;51.536;11.884;2023-06-05T05:36:12;11.60;99.90
28835;DHT22;15969;51.536;11.884;2023-06-05T05:38:40;11.70;99.90
28835;DHT22;15969;51.536;11.884;2023-06-05T05:41:05;11.80;99.90
28835;DHT22;15969;51.536;11.884;2023-06-05T05:43:31;12.00;99.90
28835;DHT22;15969;51.536;11.884;2023-06-05T05:45:57;12.10;99.90
28835;DHT22;15969;51.536;11.884;2023-06-05T05:48:22;12.20;99.90
28835;DHT22;15969;51.536;11.884;2023-06-05T05:50:49;12.40;99.90
28835;DHT22;15969;51.536;11.884;2023-06-05T05:53:15;12.50;99.90
28835;DHT22;15969;51.536;11.884;2023-06-05T05:55:40;12.60;99.90
28835;DHT22;15969;51.536;11.884;2023-06-05T05:58:06;12.70;99.90
28835;DHT22;15969;51.536;11.884;2023-06-05T06:00:32;12.80;99.90
28835;DHT22;15969;51.536;11.884;2023-06-05T06:02:59;13.00;99.90
28835;DHT22;15969;51.536;11.884;2023-06-05T06:05:25;13.10;99.90
28835;DHT22;15969;51.536;11.884;2023-06-05T06:07:51;13.20;99.90
28835;DHT22;15969;51.536;11.884;2023-06-05T06:10:16;13.30;99.90
28835;DHT22;15969;51.536;11.884;2023-06-05T06:12:43;13.50;99.90
28835;DHT22;15969;51.536;11.884;2023-06-05T06:15:10;13.60;99.90
28835;DHT22;15969;51.536;11.884;2023-06-05T06:17:37;13.70;99.90
28835;DHT22;15969;51.536;11.884;2023-06-05T06:20:04;13.90;99.90
28835;DHT22;15969;51.536;11.884;2023-06-05T06:22:31;14.00;99.90
28835;DHT22;15969;51.536;11.884;2023-06-05T06:24:56;14.10;99.90
28835;DHT22;15969;51.536;11.884;2023-06-05T06:27:22;14.30;99.90
28835;DHT22;15969;51.536;11.884;2023-06-05T06:29:51;14.40;99.90
28835;DHT22;15969;51.536;11.884;2023-06-05T06:32:21;14.50;99.90
28835;DHT22;15969;51.536;11.884;2023-06-05T06:34:47;14.70;99.90
28835;DHT22;15969;51.536;11.884;2023-06-05T06:37:14;14.80;99.90
28835;DHT22;15969;51.536;11.884;2023-06-05T06:39:43;14.90;99.90
28835;DHT22;15969;51.536;11.884;2023-06-05T06:42:10;15.00;99.90
28835;DHT22;15969;51.536;11.884;2023-06-05T06:44:36;15.10;99.90
28835;DHT22;15969;51.536;11.884;2023-06-05T06:47:02;15.20;99.90
28835;DHT22;15969;51.536;11.884;2023-06-05T06:49:28;15.40;99.90
28835;DHT22;15969;51.536;11.884;2023-06-05T06:51:54;15.50;99.90
28835;DHT22;15969;51.536;11.884;2023-06-05T06:54:20;15.60;99.90
28835;DHT22;15969;51.536;11.884;2023-06-05T06:56:47;15.80;99.90
28835;DHT22;15969;51.536;11.884;2023-06-05T06:59:13;15.90;99.90
28835;DHT22;15969;51.536;11.884;2023-06-05T07:01:44;15.90;99.90
28835;DHT22;15969;51.536;11.884;2023-06-05T07:04:17;16.10;99.60
28835;DHT22;15969;51.536;11.884;2023-06-05T07:06:46;16.20;99.10
28835;DHT22;15969;51.536;11.884;2023-06-05T07:09:13;16.40;96.90
28835;DHT22;15969;51.536;11.884;2023-06-05T07:11:38;16.50;96.30
28835;DHT22;15969;51.536;11.884;2023-06-05T07:14:04;16.60;96.70
28835;DHT22;15969;51.536;11.884;2023-06-05T07:16:31;16.70;96.80
28835;DHT22;15969;51.536;11.884;2023-06-05T07:18:56;16.80;95.90
28835;DHT22;15969;51.536;11.884;2023-06-05T07:21:22;16.80;95.60
28835;DHT22;15969;51.536;11.884;2023-06-05T07:23:48;17.00;94.90
28835;DHT22;15969;51.536;11.884;2023-06-05T07:26:17;17.00;94.80
28835;DHT22;15969;51.536;11.884;2023-06-05T07:28:43;17.20;94.90
28835;DHT22;15969;51.536;11.884;2023-06-05T07:31:09;17.40;94.90
28835;DHT22;15969;51.536;11.884;2023-06-05T07:33:35;17.50;93.30
28835;DHT22;15969;51.536;11.884;2023-06-05T07:36:01;17.60;92.70
28835;DHT22;15969;51.536;11.884;2023-06-05T07:38:27;17.80;93.10
28835;DHT22;15969;51.536;11.884;2023-06-05T07:40:55;17.90;92.40
28835;DHT22;15969;51.536;11.884;2023-06-05T07:43:26;18.00;91.00
28835;DHT22;15969;51.536;11.884;2023-06-05T07:45:52;18.10;90.60
28835;DHT22;15969;51.536;11.884;2023-06-05T07:48:17;18.20;90.30
28835;DHT22;15969;51.536;11.884;2023-06-05T07:50:43;18.40;91.40
28835;DHT22;15969;51.536;11.884;2023-06-05T07:53:09;18.50;91.00
28835;DHT22;15969;51.536;11.884;2023-06-05T07:55:34;18.60;89.30
28835;DHT22;15969;51.536;11.884;2023-06-05T07:58:00;18.70;90.10
28835;DHT22;15969;51.536;11.884;2023-06-05T08:00:26;18.70;88.70
28835;DHT22;15969;51.536;11.884;2023-06-05T08:02:52;18.90;88.20
28835;DHT22;15969;51.536;11.884;2023-06-05T08:05:19;19.00;86.50
28835;DHT22;15969;51.536;11.884;2023-06-05T08:07:45;19.10;89.10
28835;DHT22;15969;51.536;11.884;2023-06-05T08:10:11;19.30;88.20
28835;DHT22;15969;51.536;11.884;2023-06-05T08:12:37;19.40;88.80
28835;DHT22;15969;51.536;11.884;2023-06-05T08:15:04;19.50;87.60
28835;DHT22;15969;51.536;11.884;2023-06-05T08:17:30;19.60;87.80
28835;DHT22;15969;51.536;11.884;2023-06-05T08:19:56;19.70;85.60
28835;DHT22;15969;51.536;11.884;2023-06-05T08:22:22;19.80;87.50
28835;DHT22;15969;51.536;11.884;2023-06-05T08:24:48;19.90;88.40
28835;DHT22;15969;51.536;11.884;2023-06-05T08:27:15;19.90;84.80
28835;DHT22;15969;51.536;11.884;2023-06-05T08:29:42;20.10;86.70
28835;DHT22;15969;51.536;11.884;2023-06-05T08:32:08;20.10;86.20
28835;DHT22;15969;51.536;11.884;2023-06-05T08:34:34;20.30;87.80
28835;DHT22;15969;51.536;11.884;2023-06-05T08:37:01;20.30;84.80
28835;DHT22;15969;51.536;11.884;2023-06-05T08:39:27;20.50;82.90
28835;DHT22;15969;51.536;11.884;2023-06-05T08:41:57;20.60;80.20
28835;DHT22;15969;51.536;11.884;2023-06-05T08:44:27;20.70;80.20
28835;DHT22;15969;51.536;11.884;2023-06-05T08:46:59;20.80;78.00
28835;DHT22;15969;51.536;11.884;2023-06-05T08:49:27;20.90;78.90
28835;DHT22;15969;51.536;11.884;2023-06-05T08:51:57;21.00;77.20
28835;DHT22;15969;51.536;11.884;2023-06-05T08:54:33;21.00;75.10
28835;DHT22;15969;51.536;11.884;2023-06-05T08:57:03;21.00;75.60
28835;DHT22;15969;51.536;11.884;2023-06-05T08:59:30;21.10;77.90
28835;DHT22;15969;51.536;11.884;2023-06-05T09:01:59;21.10;77.00
28835;DHT22;15969;51.536;11.884;2023-06-05T09:04:25;21.10;75.70
28835;DHT22;15969;51.536;11.884;2023-06-05T09:06:56;21.00;78.40
28835;DHT22;15969;51.536;11.884;2023-06-05T09:09:22;21.00;78.20
28835;DHT22;15969;51.536;11.884;2023-06-05T09:12:04;21.00;77.40
28835;DHT22;15969;51.536;11.884;2023-06-05T09:14:31;21.00;81.00
28835;DHT22;15969;51.536;11.884;2023-06-05T09:16:59;21.00;76.30
28835;DHT22;15969;51.536;11.884;2023-06-05T09:19:36;21.00;74.20
28835;DHT22;15969;51.536;11.884;2023-06-05T09:22:02;21.00;72.10
28835;DHT22;15969;51.536;11.884;2023-06-05T09:24:28;21.10;72.30
28835;DHT22;15969;51.536;11.884;2023-06-05T09:27:06;21.10;72.30
28835;DHT22;15969;51.536;11.884;2023-06-05T09:29:36;21.20;71.50
28835;DHT22;15969;51.536;11.884;2023-06-05T09:32:07;21.30;70.90
28835;DHT22;15969;51.536;11.884;2023-06-05T09:34:38;21.40;72.20
28835;DHT22;15969;51.536;11.884;2023-06-05T09:37:07;21.50;71.00
28835;DHT22;15969;51.536;11.884;2023-06-05T09:39:40;21.60;71.10
28835;DHT22;15969;51.536;11.884;2023-06-05T09:42:11;21.70;69.50
28835;DHT22;15969;51.536;11.884;2023-06-05T09:44:36;21.80;69.70
28835;DHT22;15969;51.536;11.884;2023-06-05T09:47:07;22.00;67.40
28835;DHT22;15969;51.536;11.884;2023-06-05T09:52:07;22.30;67.60
28835;DHT22;15969;51.536;11.884;2023-06-05T09:54:37;22.40;67.40
28835;DHT22;15969;51.536;11.884;2023-06-05T09:57:06;22.60;67.90
28835;DHT22;15969;51.536;11.884;2023-06-05T09:59:44;22.70;63.40
28835;DHT22;15969;51.536;11.884;2023-06-05T10:02:20;23.00;62.20
28835;DHT22;15969;51.536;11.884;2023-06-05T10:04:49;23.20;61.00
28835;DHT22;15969;51.536;11.884;2023-06-05T10:07:17;23.20;59.10
28835;DHT22;15969;51.536;11.884;2023-06-05T10:09:44;23.20;59.50
28835;DHT22;15969;51.536;11.884;2023-06-05T10:12:10;23.30;58.60
28835;DHT22;15969;51.536;11.884;2023-06-05T10:14:37;23.40;59.90
28835;DHT22;15969;51.536;11.884;2023-06-05T10:17:06;23.60;55.60
28835;DHT22;15969;51.536;11.884;2023-06-05T10:19:32;23.80;54.80
28835;DHT22;15969;51.536;11.884;2023-06-05T10:21:58;23.90;55.20
28835;DHT22;15969;51.536;11.884;2023-06-05T10:24:36;23.90;55.00
28835;DHT22;15969;51.536;11.884;2023-06-05T10:29:43;23.90;54.30
28835;DHT22;15969;51.536;11.884;2023-06-05T10:39:11;24.30;55.20
28835;DHT22;15969;51.536;11.884;2023-06-05T10:41:39;24.50;55.80
28835;DHT22;15969;51.536;11.884;2023-06-05T10:44:04;24.60;55.10
28835;DHT22;15969;51.536;11.884;2023-06-05T10:46:35;24.90;56.10
28835;DHT22;15969;51.536;11.884;2023-06-05T10:51:51;25.30;53.70
28835;DHT22;15969;51.536;11.884;2023-06-05T10:57:02;25.40;52.30
28835;DHT22;15969;51.536;11.884;2023-06-05T10:59:37;25.60;52.10
28835;DHT22;15969;51.536;11.884;2023-06-05T11:07:22;26.00;51.50
28835;DHT22;15969;51.536;11.884;2023-06-05T11:10:09;26.20;50.50
28835;DHT22;15969;51.536;11.884;2023-06-05T11:15:38;26.20;49.50
28835;DHT22;15969;51.536;11.884;2023-06-05T11:20:52;26.30;51.40
28835;DHT22;15969;51.536;11.884;2023-06-05T11:23:17;26.40;50.10
28835;DHT22;15969;51.536;11.884;2023-06-05T11:25:43;26.50;49.60
28835;DHT22;15969;51.536;11.884;2023-06-05T11:28:10;26.50;50.00
28835;DHT22;15969;51.536;11.884;2023-06-05T11:30:41;26.40;50.10
28835;DHT22;15969;51.536;11.884;2023-06-05T11:33:12;26.20;50.00
28835;DHT22;15969;51.536;11.884;2023-06-05T11:35:40;26.10;50.10
28835;DHT22;15969;51.536;11.884;2023-06-05T11:38:11;26.10;51.10
28835;DHT22;15969;51.536;11.884;2023-06-05T11:40:38;26.10;50.90
28835;DHT22;15969;51.536;11.884;2023-06-05T11:43:05;25.90;50.10
28835;DHT22;15969;51.536;11.884;2023-06-05T11:45:39;26.00;50.40
28835;DHT22;15969;51.536;11.884;2023-06-05T11:48:13;25.90;51.10
28835;DHT22;15969;51.536;11.884;2023-06-05T11:50:51;25.90;50.80
28835;DHT22;15969;51.536;11.884;2023-06-05T11:53:20;25.80;51.00
28835;DHT22;15969;51.536;11.884;2023-06-05T11:55:46;25.60;51.30
28835;DHT22;15969;51.536;11.884;2023-06-05T11:58:24;25.60;50.90
28835;DHT22;15969;51.536;11.884;2023-06-05T12:00:51;25.70;50.00
28835;DHT22;15969;51.536;11.884;2023-06-05T12:03:21;25.70;51.10
28835;DHT22;15969;51.536;11.884;2023-06-05T12:05:48;25.60;50.90
28835;DHT22;15969;51.536;11.884;2023-06-05T12:08:23;25.90;53.20
28835;DHT22;15969;51.536;11.884;2023-06-05T12:10:59;26.00;51.10
28835;DHT22;15969;51.536;11.884;2023-06-05T12:13:47;26.10;52.20
28835;DHT22;15969;51.536;11.884;2023-06-05T12:16:15;26.10;49.40
28835;DHT22;15969;51.536;11.884;2023-06-05T12:18:43;26.20;50.00
28835;DHT22;15969;51.536;11.884;2023-06-05T12:21:22;26.30;49.80
28835;DHT22;15969;51.536;11.884;2023-06-05T12:23:50;26.30;49.30
28835;DHT22;15969;51.536;11.884;2023-06-05T12:26:17;26.30;50.00
28835;DHT22;15969;51.536;11.884;2023-06-05T12:28:44;26.40;50.30
28835;DHT22;15969;51.536;11.884;2023-06-05T12:31:33;26.50;49.50
28835;DHT22;15969;51.536;11.884;2023-06-05T12:34:01;26.60;47.70
28835;DHT22;15969;51.536;11.884;2023-06-05T12:36:28;26.80;47.20
28835;DHT22;15969;51.536;11.884;2023-06-05T12:38:54;26.90;48.60
28835;DHT22;15969;51.536;11.884;2023-06-05T12:41:20;27.10;49.60
28835;DHT22;15969;51.536;11.884;2023-06-05T12:43:45;27.20;47.80
28835;DHT22;15969;51.536;11.884;2023-06-05T12:46:23;27.30;47.20
28835;DHT22;15969;51.536;11.884;2023-06-05T12:48:49;27.30;46.90
28835;DHT22;15969;51.536;11.884;2023-06-05T12:51:16;27.30;48.10
28835;DHT22;15969;51.536;11.884;2023-06-05T12:53:41;27.40;49.60
28835;DHT22;15969;51.536;11.884;2023-06-05T12:56:07;27.40;48.20
28835;DHT22;15969;51.536;11.884;2023-06-05T12:58:33;27.50;47.50
28835;DHT22;15969;51.536;11.884;2023-06-05T13:00:59;27.50;47.00
28835;DHT22;15969;51.536;11.884;2023-06-05T13:03:25;27.30;47.30
28835;DHT22;15969;51.536;11.884;2023-06-05T13:05:50;27.30;47.90
28835;DHT22;15969;51.536;11.884;2023-06-05T13:08:16;27.40;46.40
28835;DHT22;15969;51.536;11.884;2023-06-05T13:10:42;27.50;47.70
28835;DHT22;15969;51.536;11.884;2023-06-05T13:13:07;27.60;49.00
28835;DHT22;15969;51.536;11.884;2023-06-05T13:15:33;27.70;47.50
28835;DHT22;15969;51.536;11.884;2023-06-05T13:17:59;27.80;45.90
28835;DHT22;15969;51.536;11.884;2023-06-05T13:20:24;27.90;46.90
28835;DHT22;15969;51.536;11.884;2023-06-05T13:22:51;28.00;47.40
28835;DHT22;15969;51.536;11.884;2023-06-05T13:25:16;28.20;44.10
28835;DHT22;15969;51.536;11.884;2023-06-05T13:27:42;28.40;44.10
28835;DHT22;15969;51.536;11.884;2023-06-05T13:30:08;28.40;43.10
28835;DHT22;15969;51.536;11.884;2023-06-05T13:32:36;28.40;43.70
28835;DHT22;15969;51.536;11.884;2023-06-05T13:35:06;28.50;43.40
28835;DHT22;15969;51.536;11.884;2023-06-05T13:37:33;28.70;44.20
28835;DHT22;15969;51.536;11.884;2023-06-05T13:39:59;28.60;44.30
28835;DHT22;15969;51.536;11.884;2023-06-05T13:42:24;28.40;44.70
28835;DHT22;15969;51.536;11.884;2023-06-05T13:44:50;28.50;45.20
28835;DHT22;15969;51.536;11.884;2023-06-05T13:47:16;28.70;44.90
28835;DHT22;15969;51.536;11.884;2023-06-05T13:49:42;28.80;45.80
28835;DHT22;15969;51.536;11.884;2023-06-05T13:52:07;28.80;44.60
28835;DHT22;15969;51.536;11.884;2023-06-05T13:54:33;28.80;44.20
28835;DHT22;15969;51.536;11.884;2023-06-05T13:56:59;28.60;43.60
28835;DHT22;15969;51.536;11.884;2023-06-05T13:59:25;28.60;44.40
28835;DHT22;15969;51.536;11.884;2023-06-05T14:01:50;28.70;45.10
28835;DHT22;15969;51.536;11.884;2023-06-05T14:04:16;28.90;44.40
28835;DHT22;15969;51.536;11.884;2023-06-05T14:06:42;29.10;43.60
28835;DHT22;15969;51.536;11.884;2023-06-05T14:09:08;29.20;43.60
28835;DHT22;15969;51.536;11.884;2023-06-05T14:11:34;29.40;43.70
28835;DHT22;15969;51.536;11.884;2023-06-05T14:13:59;29.40;42.50
28835;DHT22;15969;51.536;11.884;2023-06-05T14:16:26;29.40;42.80
28835;DHT22;15969;51.536;11.884;2023-06-05T14:18:52;29.50;42.70
28835;DHT22;15969;51.536;11.884;2023-06-05T14:21:18;29.50;44.10
28835;DHT22;15969;51.536;11.884;2023-06-05T14:23:43;29.60;44.40
28835;DHT22;15969;51.536;11.884;2023-06-05T14:26:09;29.60;43.30
28835;DHT22;15969;51.536;11.884;2023-06-05T14:28:36;29.80;43.00
28835;DHT22;15969;51.536;11.884;2023-06-05T14:31:02;30.00;42.50
28835;DHT22;15969;51.536;11.884;2023-06-05T14:33:28;30.10;42.40
28835;DHT22;15969;51.536;11.884;2023-06-05T14:35:53;30.20;45.00
28835;DHT22;15969;51.536;11.884;2023-06-05T14:38:20;30.30;42.40
28835;DHT22;15969;51.536;11.884;2023-06-05T14:40:45;30.30;42.90
28835;DHT22;15969;51.536;11.884;2023-06-05T14:43:11;30.50;40.30
28835;DHT22;15969;51.536;11.884;2023-06-05T14:45:37;30.60;39.80
28835;DHT22;15969;51.536;11.884;2023-06-05T14:48:02;30.80;38.60
28835;DHT22;15969;51.536;11.884;2023-06-05T14:50:28;30.90;38.70
28835;DHT22;15969;51.536;11.884;2023-06-05T14:52:54;30.80;39.40
28835;DHT22;15969;51.536;11.884;2023-06-05T14:55:20;30.90;39.40
28835;DHT22;15969;51.536;11.884;2023-06-05T14:57:46;30.90;38.70
28835;DHT22;15969;51.536;11.884;2023-06-05T15:00:12;30.80;39.00
28835;DHT22;15969;51.536;11.884;2023-06-05T15:02:37;30.60;39.60
28835;DHT22;15969;51.536;11.884;2023-06-05T15:05:04;30.30;40.40
28835;DHT22;15969;51.536;11.884;2023-06-05T15:07:40;30.00;42.00
28835;DHT22;15969;51.536;11.884;2023-06-05T15:10:07;29.80;42.00
28835;DHT22;15969;51.536;11.884;2023-06-05T15:12:35;29.40;42.10
28835;DHT22;15969;51.536;11.884;2023-06-05T15:15:01;29.20;43.60
28835;DHT22;15969;51.536;11.884;2023-06-05T15:17:27;29.20;43.10
28835;DHT22;15969;51.536;11.884;2023-06-05T15:19:52;29.10;42.30
28835;DHT22;15969;51.536;11.884;2023-06-05T15:22:18;29.10;42.20
28835;DHT22;15969;51.536;11.884;2023-06-05T15:24:46;29.00;43.20
28835;DHT22;15969;51.536;11.884;2023-06-05T15:27:12;29.00;43.40
28835;DHT22;15969;51.536;11.884;2023-06-05T15:29:38;29.00;43.40
28835;DHT22;15969;51.536;11.884;2023-06-05T15:32:03;28.90;44.40
28835;DHT22;15969;51.536;11.884;2023-06-05T15:34:29;28.90;44.50
28835;DHT22;15969;51.536;11.884;2023-06-05T15:36:55;29.20;44.90
28835;DHT22;15969;51.536;11.884;2023-06-05T15:39:21;29.40;45.50
28835;DHT22;15969;51.536;11.884;2023-06-05T15:41:49;29.60;44.10
28835;DHT22;15969;51.536;11.884;2023-06-05T15:44:16;30.00;42.30
28835;DHT22;15969;51.536;11.884;2023-06-05T15:46:42;30.40;41.10
28835;DHT22;15969;51.536;11.884;2023-06-05T15:49:08;30.80;42.00
28835;DHT22;15969;51.536;11.884;2023-06-05T15:51:33;31.10;40.10